createdAt,value
2018-11-11T00:01:27.285Z,8.53
2018-11-11T00:03:55.843Z,8.40
2018-11-11T00:06:24.563Z,8.70
2018-11-11T00:08:53.166Z,8.57
2018-11-11T00:11:21.697Z,8.60
2018-11-11T00:13:50.116Z,9.10
2018-11-11T00:16:18.677Z,8.47
2018-11-11T00:18:47.448Z,8.97
2018-11-11T00:21:16.880Z,8.63
2018-11-11T00:23:45.584Z,9.27
2018-11-11T00:26:13.981Z,9.50
2018-11-11T00:28:42.603Z,9.10
2018-11-11T00:31:11.190Z,9.67
2018-11-11T00:33:39.834Z,8.03
2018-11-11T00:36:09.227Z,9.40
2018-11-11T00:38:40.128Z,8.27
2018-11-11T00:41:08.810Z,8.27
2018-11-11T00:43:37.330Z,8.87
2018-11-11T00:46:06.544Z,8.57
2018-11-11T00:48:35.287Z,8.77
2018-11-11T00:51:03.764Z,7.93
2018-11-11T00:53:32.123Z,8.40
2018-11-11T00:56:00.734Z,8.73
2018-11-11T00:58:29.216Z,8.70
2018-11-11T01:00:57.744Z,8.97
2018-11-11T01:03:26.145Z,7.70
2018-11-11T01:05:54.561Z,8.67
2018-11-11T01:08:22.737Z,8.43
2018-11-11T01:10:51.136Z,8.30
2018-11-11T01:13:19.805Z,7.73
2018-11-11T01:15:48.894Z,7.50
2018-11-11T01:18:17.526Z,7.57
2018-11-11T01:20:46.119Z,7.50
2018-11-11T01:23:14.496Z,7.17
2018-11-11T01:25:43.056Z,6.37
2018-11-11T01:28:11.495Z,6.77
2018-11-11T01:30:46.341Z,6.93
2018-11-11T01:33:15.042Z,6.73
2018-11-11T01:35:50.092Z,6.07
2018-11-11T01:38:19.027Z,6.50
2018-11-11T01:40:47.689Z,6.50
2018-11-11T01:43:17.607Z,5.83
2018-11-11T01:45:46.308Z,5.27
2018-11-11T01:48:14.892Z,5.70
2018-11-11T01:50:44.045Z,5.57
2018-11-11T01:53:12.591Z,5.67
2018-11-11T01:55:40.978Z,5.13
2018-11-11T01:58:10.051Z,5.37
2018-11-11T02:00:38.906Z,4.70
2018-11-11T02:03:07.662Z,4.67
2018-11-11T02:05:36.214Z,5.77
2018-11-11T02:08:05.022Z,4.57
2018-11-11T02:10:33.565Z,4.40
2018-11-11T02:13:01.935Z,4.70
2018-11-11T02:15:30.532Z,3.80
2018-11-11T02:17:59.218Z,4.10
2018-11-11T02:20:27.892Z,4.20
2018-11-11T02:22:56.536Z,3.77
2018-11-11T02:25:25.320Z,4.17
2018-11-11T02:27:54.041Z,3.87
2018-11-11T02:30:23.094Z,3.30
2018-11-11T02:32:51.708Z,4.00
2018-11-11T02:35:20.532Z,3.83
2018-11-11T02:37:49.107Z,3.97
2018-11-11T02:40:19.537Z,4.10
2018-11-11T02:42:48.656Z,3.07
2018-11-11T02:45:18.102Z,3.70
2018-11-11T02:47:46.606Z,3.33
2018-11-11T02:50:16.233Z,3.70
2018-11-11T02:52:45.171Z,3.50
2018-11-11T02:55:14.112Z,3.13
2018-11-11T02:57:43.355Z,3.00
2018-11-11T03:00:21.090Z,3.00
2018-11-11T03:02:50.049Z,4.23
2018-11-11T03:05:19.272Z,3.60
2018-11-11T03:07:48.127Z,3.40
2018-11-11T03:13:08.941Z,3.80
2018-11-11T03:15:37.558Z,3.20
2018-11-11T03:18:06.278Z,3.97
2018-11-11T03:20:35.007Z,3.40
2018-11-11T03:23:03.550Z,3.10
2018-11-11T03:25:32.443Z,3.60
2018-11-11T03:28:00.937Z,3.70
2018-11-11T03:30:29.566Z,3.03
2018-11-11T03:32:58.328Z,3.00
2018-11-11T03:35:27.515Z,3.70
2018-11-11T03:37:56.162Z,3.80
2018-11-11T03:40:24.844Z,3.23
2018-11-11T03:42:53.129Z,3.37
2018-11-11T03:45:21.868Z,3.33
2018-11-11T03:47:51.721Z,3.67
2018-11-11T03:50:21.113Z,2.87
2018-11-11T03:52:49.589Z,2.80
2018-11-11T03:55:18.084Z,2.63
2018-11-11T03:57:47.069Z,2.93
2018-11-11T04:00:16.397Z,3.43
2018-11-11T04:02:44.977Z,2.87
2018-11-11T04:05:14.679Z,3.30
2018-11-11T04:07:43.431Z,3.30
2018-11-11T04:10:13.487Z,3.37
2018-11-11T04:12:42.136Z,2.63
2018-11-11T04:15:12.245Z,3.73
2018-11-11T04:17:40.751Z,3.00
2018-11-11T04:20:10.316Z,3.13
2018-11-11T04:22:38.800Z,3.00
2018-11-11T04:25:07.550Z,3.17
2018-11-11T04:27:35.988Z,3.13
2018-11-11T04:30:04.926Z,2.40
2018-11-11T04:32:33.418Z,2.83
2018-11-11T04:35:01.911Z,3.47
2018-11-11T04:37:30.694Z,3.10
2018-11-11T04:39:59.394Z,3.17
2018-11-11T04:42:27.941Z,2.70
2018-11-11T04:47:31.343Z,2.90
2018-11-11T04:50:00.253Z,3.20
2018-11-11T04:52:28.970Z,2.70
2018-11-11T04:54:57.932Z,3.20
2018-11-11T04:57:26.902Z,2.70
2018-11-11T04:59:55.435Z,3.50
2018-11-11T05:02:24.105Z,3.10
2018-11-11T05:04:52.536Z,2.90
2018-11-11T05:07:20.989Z,2.80
2018-11-11T05:09:49.557Z,2.93
2018-11-11T05:12:18.266Z,2.73
2018-11-11T05:14:46.744Z,3.10
2018-11-11T05:17:15.210Z,2.90
2018-11-11T05:19:43.698Z,2.70
2018-11-11T05:22:11.955Z,2.90
2018-11-11T05:24:40.478Z,3.17
2018-11-11T05:27:15.387Z,2.80
2018-11-11T05:29:43.861Z,2.80
2018-11-11T05:32:12.239Z,2.17
2018-11-11T05:34:40.561Z,2.60
2018-11-11T05:37:08.913Z,2.47
2018-11-11T05:39:37.320Z,2.60
2018-11-11T05:42:05.721Z,3.13
2018-11-11T05:44:34.323Z,3.00
2018-11-11T05:47:02.682Z,3.07
2018-11-11T05:49:31.094Z,4.27
2018-11-11T05:51:59.375Z,3.30
2018-11-11T05:54:27.770Z,3.40
2018-11-11T05:56:56.763Z,3.30
2018-11-11T05:59:25.155Z,3.33
2018-11-11T06:01:53.589Z,4.00
2018-11-11T06:04:21.874Z,3.67
2018-11-11T06:06:50.352Z,3.40
2018-11-11T06:09:19.594Z,3.33
2018-11-11T06:11:47.806Z,3.10
2018-11-11T06:14:16.047Z,3.67
2018-11-11T06:16:44.417Z,3.97
2018-11-11T06:19:12.836Z,3.90
2018-11-11T06:21:41.131Z,4.10
2018-11-11T06:24:09.326Z,4.27
2018-11-11T06:26:37.571Z,3.40
2018-11-11T06:29:05.943Z,2.90
2018-11-11T06:31:34.218Z,2.93
2018-11-11T06:34:02.585Z,2.90
2018-11-11T06:36:30.991Z,3.03
2018-11-11T06:38:59.249Z,3.10
2018-11-11T06:44:02.372Z,3.07
2018-11-11T06:46:30.866Z,2.70
2018-11-11T06:48:59.294Z,2.80
2018-11-11T06:51:28.570Z,2.53
2018-11-11T06:54:00.757Z,2.93
2018-11-11T06:56:29.343Z,2.80
2018-11-11T06:58:58.011Z,2.70
2018-11-11T07:04:02.023Z,2.90
2018-11-11T07:06:31.205Z,3.73
2018-11-11T07:08:59.630Z,2.23
2018-11-11T07:11:27.949Z,2.47
2018-11-11T07:13:56.852Z,2.17
2018-11-11T07:16:25.764Z,2.20
2018-11-11T07:18:54.114Z,2.20
2018-11-11T07:21:22.904Z,3.10
2018-11-11T07:23:51.762Z,2.77
2018-11-11T07:26:20.159Z,1.90
2018-11-11T07:28:49.326Z,2.40
2018-11-11T07:31:17.884Z,2.40
2018-11-11T07:33:46.681Z,2.30
2018-11-11T07:36:15.143Z,2.33
2018-11-11T07:38:43.863Z,2.20
2018-11-11T07:41:12.179Z,2.47
2018-11-11T07:43:40.668Z,2.27
2018-11-11T07:46:09.152Z,2.73
2018-11-11T07:54:24.526Z,3.13
2018-11-11T07:56:52.985Z,2.90
2018-11-11T07:59:21.458Z,2.83
2018-11-11T08:01:53.007Z,2.80
2018-11-11T08:04:23.882Z,3.07
2018-11-11T08:06:52.461Z,3.00
2018-11-11T08:09:22.809Z,2.70
2018-11-11T08:12:04.137Z,2.77
2018-11-11T08:14:49.952Z,3.10
2018-11-11T08:20:43.467Z,3.07
2018-11-11T08:23:13.437Z,3.00
2018-11-11T08:32:42.243Z,2.70
2018-11-11T08:35:15.058Z,2.63
2018-11-11T08:37:48.491Z,2.90
2018-11-11T08:40:17.228Z,2.47
2018-11-11T08:42:48.570Z,2.90
2018-11-11T08:45:16.871Z,2.50
2018-11-11T08:47:47.650Z,3.53
2018-11-11T08:50:19.293Z,2.50
2018-11-11T08:52:51.843Z,2.93
2018-11-11T08:55:28.194Z,2.40
2018-11-11T08:58:00.573Z,2.80
2018-11-11T09:00:32.579Z,2.80
2018-11-11T09:03:00.770Z,2.70
2018-11-11T09:05:33.230Z,2.67
2018-11-11T09:08:02.186Z,2.87
2018-11-11T09:10:30.900Z,3.03
2018-11-11T09:12:59.660Z,3.00
2018-11-11T09:15:44.227Z,2.73
2018-11-11T09:18:12.997Z,3.10
2018-11-11T09:20:42.197Z,2.40
2018-11-11T09:23:11.028Z,2.67
2018-11-11T09:25:40.465Z,2.50
2018-11-11T09:28:08.926Z,3.07
2018-11-11T09:30:37.830Z,3.03
2018-11-11T09:33:06.220Z,2.60
2018-11-11T09:35:36.316Z,2.33
2018-11-11T09:38:40.381Z,2.60
2018-11-11T09:41:09.886Z,2.40
2018-11-11T09:43:39.471Z,2.43
2018-11-11T09:46:08.828Z,2.73
2018-11-11T09:48:37.251Z,2.60
2018-11-11T09:51:06.392Z,2.83
2018-11-11T09:53:34.872Z,2.07
2018-11-11T09:56:03.491Z,2.20
2018-11-11T09:58:34.472Z,2.10
2018-11-11T10:01:03.018Z,2.60
2018-11-11T10:03:36.790Z,2.77
2018-11-11T10:06:12.597Z,2.30
2018-11-11T10:08:47.780Z,2.20
2018-11-11T10:11:27.264Z,2.40
2018-11-11T10:14:01.272Z,2.43
2018-11-11T10:16:35.187Z,2.43
2018-11-11T10:21:10.030Z,2.53
2018-11-11T10:23:44.009Z,3.00
2018-11-11T10:28:23.793Z,3.30
2018-11-11T10:30:59.210Z,2.90
2018-11-11T10:33:36.715Z,2.73
2018-11-11T10:36:10.390Z,2.60
2018-11-11T10:38:46.681Z,2.70
2018-11-11T10:41:20.793Z,2.40
2018-11-11T10:43:53.579Z,3.00
2018-11-11T10:46:43.893Z,2.57
2018-11-11T10:49:17.103Z,2.83
2018-11-11T10:51:47.170Z,2.60
2018-11-11T10:54:19.470Z,2.90
2018-11-11T10:56:48.046Z,2.60
2018-11-11T10:59:16.617Z,3.03
2018-11-11T11:01:50.415Z,2.90
2018-11-11T11:04:19.261Z,2.60
2018-11-11T11:06:57.416Z,3.27
2018-11-11T11:09:26.401Z,2.70
2018-11-11T11:11:55.086Z,2.20
2018-11-11T11:14:23.523Z,2.30
2018-11-11T11:16:52.209Z,2.37
2018-11-11T11:19:20.692Z,2.40
2018-11-11T11:21:49.732Z,1.80
2018-11-11T11:24:18.062Z,2.60
2018-11-11T11:26:46.540Z,2.20
2018-11-11T11:29:15.140Z,2.80
2018-11-11T11:31:43.591Z,2.77
2018-11-11T11:34:11.956Z,2.77
2018-11-11T11:36:40.512Z,2.33
2018-11-11T11:39:10.042Z,2.27
2018-11-11T11:41:40.671Z,2.47
2018-11-11T11:44:09.236Z,2.30
2018-11-11T11:46:37.835Z,2.80
2018-11-11T11:49:10.954Z,2.90
2018-11-11T11:51:39.723Z,2.60
2018-11-11T11:54:08.142Z,2.47
2018-11-11T11:56:36.737Z,2.43
2018-11-11T11:59:05.210Z,2.27
2018-11-11T12:01:33.946Z,2.67
2018-11-11T12:04:02.578Z,2.40
2018-11-11T12:06:31.284Z,2.33
2018-11-11T12:09:00.125Z,2.50
2018-11-11T12:11:28.783Z,2.77
2018-11-11T12:13:57.419Z,2.80
2018-11-11T12:16:26.645Z,2.67
2018-11-11T12:18:55.500Z,2.50
2018-11-11T12:21:24.155Z,2.43
2018-11-11T12:23:53.660Z,2.80
2018-11-11T12:26:22.275Z,2.97
2018-11-11T12:28:50.875Z,2.43
2018-11-11T12:31:19.294Z,2.57
2018-11-11T12:33:48.572Z,2.70
2018-11-11T12:36:17.400Z,3.00
2018-11-11T12:38:46.271Z,2.73
2018-11-11T12:41:14.491Z,2.50
2018-11-11T12:43:44.294Z,3.30
2018-11-11T12:46:12.674Z,2.47
2018-11-11T12:48:41.134Z,2.90
2018-11-11T12:51:09.404Z,2.90
2018-11-11T12:53:38.811Z,2.90
2018-11-11T12:56:10.654Z,3.70
2018-11-11T12:58:48.400Z,2.83
2018-11-11T13:01:17.714Z,2.70
2018-11-11T13:03:55.506Z,3.57
2018-11-11T13:06:28.416Z,3.00
2018-11-11T13:11:44.756Z,3.27
2018-11-11T13:50:22.734Z,3.33
2018-11-11T13:52:52.613Z,3.07
2018-11-11T13:55:21.629Z,2.77
2018-11-11T13:57:50.471Z,2.63
2018-11-11T14:00:26.650Z,2.83
2018-11-11T14:02:54.881Z,2.47
2018-11-11T14:05:23.156Z,2.63
2018-11-11T14:07:51.781Z,2.37
2018-11-11T14:10:20.019Z,2.13
2018-11-11T14:12:48.416Z,2.33
2018-11-11T14:15:18.229Z,2.73
2018-11-11T14:17:46.928Z,2.60
2018-11-11T14:20:17.247Z,2.53
2018-11-11T14:22:46.547Z,1.93
2018-11-11T14:25:17.571Z,2.50
2018-11-11T14:27:46.187Z,1.87
2018-11-11T14:30:15.962Z,2.20
2018-11-11T14:32:45.845Z,2.10
2018-11-11T14:35:14.172Z,1.70
2018-11-11T14:37:42.767Z,1.80
2018-11-11T14:40:14.330Z,2.00
2018-11-11T14:42:42.558Z,1.87
2018-11-11T14:45:12.215Z,2.17
2018-11-11T14:47:41.281Z,1.97
2018-11-11T14:50:10.739Z,2.00
2018-11-11T14:52:39.242Z,1.77
2018-11-11T14:55:10.021Z,2.00
2018-11-11T14:57:38.279Z,1.77
2018-11-11T15:00:08.988Z,2.00
2018-11-11T15:02:37.398Z,1.60
2018-11-11T15:05:06.753Z,1.83
2018-11-11T15:07:34.942Z,2.10
2018-11-11T15:10:03.336Z,1.70
2018-11-11T15:12:37.982Z,2.00
2018-11-11T15:15:09.130Z,1.77
2018-11-11T15:17:42.759Z,1.93
2018-11-11T15:20:12.900Z,2.30
2018-11-11T15:22:42.215Z,2.13
2018-11-11T15:25:12.967Z,1.70
2018-11-11T15:27:44.146Z,1.80
2018-11-11T15:30:20.513Z,2.30
2018-11-11T15:32:49.441Z,1.70
2018-11-11T15:35:19.651Z,1.90
2018-11-11T15:37:52.001Z,1.50
2018-11-11T15:40:26.524Z,1.90
2018-11-11T15:43:24.222Z,1.90
2018-11-11T15:45:52.759Z,1.87
2018-11-11T15:48:21.519Z,2.00
2018-11-11T15:50:51.611Z,2.07
2018-11-11T15:53:59.997Z,1.57
2018-11-11T15:56:51.121Z,1.70
2018-11-11T15:59:20.338Z,1.60
2018-11-11T16:01:51.379Z,1.67
2018-11-11T16:04:20.768Z,1.53
2018-11-11T16:12:41.812Z,2.03
2018-11-11T16:15:14.764Z,2.53
2018-11-11T16:17:45.480Z,1.80
2018-11-11T16:20:17.336Z,1.80
2018-11-11T16:22:57.320Z,1.87
2018-11-11T16:25:27.925Z,1.97
2018-11-11T16:37:22.243Z,1.50
2018-11-11T16:49:20.069Z,1.80
2018-11-11T16:52:05.749Z,1.87
2018-11-11T16:54:34.855Z,2.20
2018-11-11T17:09:12.122Z,2.33
2018-11-11T17:11:41.766Z,1.77
2018-11-11T17:14:12.939Z,2.10
2018-11-11T17:19:36.750Z,2.13
2018-11-11T17:22:07.504Z,2.20
2018-11-11T17:24:41.912Z,1.93
2018-11-11T17:27:12.811Z,1.90
2018-11-11T17:29:45.660Z,2.50
2018-11-11T19:21:21.189Z,3.13
2018-11-11T19:24:16.832Z,3.10
2018-11-11T19:32:38.263Z,3.10
2018-11-11T19:35:12.015Z,2.93
2018-11-11T19:37:40.435Z,3.00
2018-11-11T19:40:10.160Z,3.70
2018-11-11T19:42:42.437Z,3.40
2018-11-11T19:45:17.405Z,3.67
2018-11-11T19:48:05.186Z,3.40
2018-11-11T19:50:36.536Z,3.67
2018-11-11T19:53:06.803Z,3.40
2018-11-11T20:51:18.927Z,5.13
2018-11-11T20:53:48.752Z,5.30
2018-11-11T20:56:17.457Z,5.93
2018-11-11T21:13:26.294Z,6.43
2018-11-11T21:16:01.985Z,6.10
2018-11-11T21:18:37.341Z,5.73
2018-11-11T21:21:07.891Z,5.73
2018-11-11T21:23:39.548Z,6.43
2018-11-11T21:26:09.085Z,5.73
2018-11-11T21:28:37.451Z,6.70
2018-11-11T21:31:05.792Z,5.93
2018-11-11T21:33:34.137Z,5.70
2018-11-11T21:36:06.824Z,6.10
2018-11-11T21:38:35.211Z,5.30
2018-11-11T21:41:03.510Z,6.43
2018-11-11T21:43:32.196Z,6.30
2018-11-11T21:46:00.438Z,6.60
2018-11-11T21:48:28.972Z,6.60
2018-11-11T21:50:57.207Z,5.97
2018-11-11T21:53:35.020Z,6.47
2018-11-11T21:56:05.785Z,6.20
2018-11-11T21:58:34.035Z,6.23
2018-11-11T22:01:16.504Z,6.23
2018-11-11T22:03:45.159Z,6.83
2018-11-11T22:06:13.552Z,6.10
2018-11-11T22:09:15.750Z,6.50
2018-11-11T22:11:44.758Z,6.70
2018-11-11T22:14:13.002Z,6.67
2018-11-11T22:16:41.400Z,6.77
2018-11-11T22:19:09.594Z,6.73
2018-11-11T22:21:37.978Z,6.77
2018-11-11T22:24:06.849Z,7.30
2018-11-11T22:26:37.853Z,7.47
2018-11-11T22:29:06.318Z,7.70
2018-11-11T22:31:34.899Z,7.87
2018-11-11T22:34:03.192Z,8.13
2018-11-11T22:36:31.393Z,7.90
2018-11-11T22:39:01.360Z,8.90
2018-11-11T22:41:30.343Z,8.87
2018-11-11T22:43:59.643Z,8.77
2018-11-11T22:46:28.220Z,9.10
2018-11-11T22:48:56.510Z,9.77
2018-11-11T22:51:25.398Z,9.13
2018-11-11T22:54:07.499Z,8.50
2018-11-11T22:59:32.563Z,9.13
2018-11-11T23:02:00.766Z,8.60
2018-11-11T23:04:29.119Z,9.77
2018-11-11T23:06:58.110Z,8.97
2018-11-11T23:09:26.264Z,9.63
2018-11-11T23:11:54.536Z,10.60
2018-11-11T23:14:22.761Z,10.63
2018-11-11T23:16:50.983Z,9.90
2018-11-11T23:19:19.075Z,10.17
2018-11-11T23:21:47.261Z,10.80
2018-11-11T23:24:15.538Z,10.13
2018-11-11T23:26:45.044Z,10.73
2018-11-11T23:29:13.219Z,10.20
2018-11-11T23:31:43.787Z,10.93
2018-11-11T23:34:12.041Z,10.43
2018-11-11T23:36:40.239Z,10.43
2018-11-11T23:39:09.094Z,10.50
2018-11-11T23:41:37.227Z,10.17
2018-11-11T23:44:05.700Z,9.67
2018-11-11T23:46:33.947Z,10.50
2018-11-11T23:49:02.127Z,10.20
2018-11-11T23:51:30.432Z,10.23
2018-11-11T23:53:58.731Z,10.37
2018-11-11T23:56:26.950Z,10.57
2018-11-11T23:58:55.139Z,10.27
